Paramount Hamilton — 2CWB2 — position and weather

sailwx.info

Track history (hours):
 
Tides and Currents Weather Stations Pressure Air Temp Water Temp Dewpoint Dewpoint Depression Visibility Wind Speed Wind Dir Waves Ship Positions

Paramount Hamilton

Last reported at 2018-Feb-17 18:24 UTC. Time now 2018-Feb-17 19:11 UTC.
Position N 29°06' W 094°36'.

Length 249 m; draft 8.5 m.

Type: Tanker. MMSI: 235076274.

Date/timePositionNaut miles runAvg speedWind from/ knotsBaromVisibWave heightAir tempDewpointWater temp
2018-Feb-17 18:24N 29°06' W 094°36'3210.8
2018-Feb-17 15:25N 28°56' W 094°01'811.4
2018-Feb-17 14:43N 28°51' W 093°54'511.4
2018-Feb-17 14:17N 28°48' W 093°49'411.3
2018-Feb-17 13:57N 28°46' W 093°45'811.0
2018-Feb-17 13:15N 28°40' W 093°41'6 8.9
2018-Feb-17 12:35N 28°34' W 093°40'0 1.9
2018-Feb-17 12:26N 28°34' W 093°40'0 0.5
2018-Feb-17 11:59N 28°34' W 093°40'1 1.6
2018-Feb-17 11:26N 28°33' W 093°41'1 1.4
2018-Feb-17 10:43N 28°33' W 093°39'0 0.3
2018-Feb-17 10:26N 28°33' W 093°39'0 0.2
2018-Feb-17 09:56N 28°33' W 093°39'0 0.0
2018-Feb-17 09:04N 28°33' W 093°39'0 0.0
2018-Feb-17 08:45N 28°33' W 093°39'0 0.0
2018-Feb-17 08:29N 28°33' W 093°39'0 0.0
2018-Feb-17 07:54N 28°33' W 093°39'0 0.0
2018-Feb-17 07:30N 28°33' W 093°39'0 0.0
2018-Feb-17 06:59N 28°33' W 093°39'0 0.0
2018-Feb-17 06:30N 28°33' W 093°39'8 0.6
2018-Feb-16 17:06N 28°34' W 093°49'1 3.6
2018-Feb-16 16:53N 28°33' W 093°49'2 2.6
2018-Feb-16 16:06N 28°33' W 093°47'0 0.9
2018-Feb-16 16:00N 28°33' W 093°47'0 0.8
2018-Feb-16 15:29N 28°33' W 093°47'1 0.9
2018-Feb-16 14:53N 28°32' W 093°47'1310.3
2018-Feb-16 13:37N 28°30' W 094°01'512.4
2018-Feb-16 13:15N 28°29' W 094°06'312.4
2018-Feb-16 13:00N 28°29' W 094°10'912.4
2018-Feb-16 12:19N 28°27' W 094°19'412.4
2018-Feb-16 11:58N 28°26' W 094°24'612.4
2018-Feb-16 11:29N 28°25' W 094°31'712.5
2018-Feb-16 10:53N 28°22' W 094°38'8 1.2
2018-Feb-16 04:14N 28°19' W 094°47'0 0.0
2018-Feb-16 02:32N 28°19' W 094°47'0 0.0
2018-Feb-16 02:29N 28°19' W 094°47'0 0.0
2018-Feb-16 01:53N 28°19' W 094°47'  
2018-Feb-12 05:36N 28°56' W 093°58'511.9
2018-Feb-12 05:10N 28°60' W 093°54'411.9
2018-Feb-12 04:49N 29°03' W 093°50'1411.7
2018-Feb-12 03:37N 29°13' W 093°40'310.8
2018-Feb-12 03:19N 29°16' W 093°39'310.8
2018-Feb-12 03:00N 29°20' W 093°40'5 9.9
2018-Feb-12 02:30N 29°25' W 093°40'4 8.1
2018-Feb-12 01:58N 29°29' W 093°40'510.8
2018-Feb-12 01:30N 29°32' W 093°44'610.8
2018-Feb-12 00:59N 29°37' W 093°49'510.4
2018-Feb-12 00:30N 29°41' W 093°50'4 9.0
2018-Feb-12 00:00N 29°45' W 093°53'4 7.5
2018-Feb-11 23:30N 29°47' W 093°57'3 6.7
2018-Feb-11 23:00N 29°50' W 093°57'2 4.7
2018-Feb-11 22:30N 29°52' W 093°56'3 6.6
2018-Feb-11 22:00N 29°55' W 093°53'3 5.9
2018-Feb-11 21:30N 29°57' W 093°52'2 4.6
2018-Feb-11 21:00N 29°59' W 093°53'3 5.6
2018-Feb-11 20:26N 29°60' W 093°57'1 3.3
2018-Feb-11 20:00N 30°01' W 093°58'0 0.0
2018-Feb-11 19:29N 30°01' W 093°58'0 0.0
2018-Feb-11 18:59N 30°01' W 093°58'0 0.0
2018-Feb-11 18:29N 30°01' W 093°58'0 0.0
2018-Feb-11 17:59N 30°01' W 093°58'0 0.0
2018-Feb-11 17:29N 30°01' W 093°58'0 0.0
2018-Feb-11 16:59N 30°01' W 093°58'0 0.0
2018-Feb-11 16:26N 30°01' W 093°58'0 0.0
2018-Feb-11 15:56N 30°01' W 093°58'0 0.0
2018-Feb-11 15:29N 30°01' W 093°58'0 0.0
2018-Feb-11 14:59N 30°01' W 093°58'0 0.0
2018-Feb-11 14:26N 30°01' W 093°58'0 0.0
2018-Feb-11 13:59N 30°01' W 093°58'0 0.0
2018-Feb-11 13:29N 30°01' W 093°58'0 0.0
2018-Feb-11 12:59N 30°01' W 093°58'0 0.0
2018-Feb-11 12:29N 30°01' W 093°58'0 0.0
2018-Feb-11 11:59N 30°01' W 093°58'0 0.0
2018-Feb-11 11:29N 30°01' W 093°58'0 0.0
2018-Feb-11 10:56N 30°01' W 093°58'0 0.0
2018-Feb-11 10:29N 30°01' W 093°58'0 0.0
2018-Feb-11 09:59N 30°01' W 093°58'0 0.0
2018-Feb-11 09:29N 30°01' W 093°58'0 0.0
2018-Feb-11 08:59N 30°01' W 093°58'0 0.0
2018-Feb-11 08:29N 30°01' W 093°58'0 0.0
2018-Feb-11 07:59N 30°01' W 093°58'0 0.0
2018-Feb-11 07:29N 30°01' W 093°58'0 0.0
2018-Feb-11 06:56N 30°01' W 093°58'0 0.0
2018-Feb-11 06:29N 30°01' W 093°58'0 0.0
2018-Feb-11 05:59N 30°01' W 093°58'0 0.0
2018-Feb-11 05:29N 30°01' W 093°58'0 0.0
2018-Feb-11 04:59N 30°01' W 093°58'0 0.0
2018-Feb-11 04:29N 30°01' W 093°58'0 0.0
2018-Feb-11 03:59N 30°01' W 093°58'0 0.0
2018-Feb-11 03:20N 30°01' W 093°58'0 0.0
2018-Feb-11 02:59N 30°01' W 093°58'0 0.0
2018-Feb-11 02:29N 30°01' W 093°58'0 0.0
2018-Feb-11 01:59N 30°01' W 093°58'0 0.0
2018-Feb-11 01:29N 30°01' W 093°58'0 0.0
2018-Feb-11 00:59N 30°01' W 093°58'0 0.0
2018-Feb-11 00:29N 30°01' W 093°58'0 0.0
2018-Feb-10 23:56N 30°01' W 093°58'0 0.0
2018-Feb-10 23:29N 30°01' W 093°58'0 0.0
2018-Feb-10 22:59N 30°01' W 093°58'0 0.0
2018-Feb-10 22:29N 30°01' W 093°58'0 0.0
2018-Feb-10 21:59N 30°01' W 093°58'0 0.0
2018-Feb-10 21:29N 30°01' W 093°58'0 0.0
2018-Feb-10 20:59N 30°01' W 093°58'0 0.0
2018-Feb-10 20:29N 30°01' W 093°58'0 0.0
2018-Feb-10 19:59N 30°01' W 093°58'0 0.0
2018-Feb-10 19:29N 30°01' W 093°58'0 0.0
2018-Feb-10 18:59N 30°01' W 093°58'0 0.0
2018-Feb-10 18:29N 30°01' W 093°58'0 0.0
2018-Feb-10 17:59N 30°01' W 093°58'0 0.0
2018-Feb-10 17:29N 30°01' W 093°58'0 0.0
2018-Feb-10 16:59N 30°01' W 093°58'0 0.0
2018-Feb-10 16:29N 30°01' W 093°58'0 0.0
2018-Feb-10 15:59N 30°01' W 093°58'0 0.0
2018-Feb-10 15:29N 30°01' W 093°58'0 0.0
2018-Feb-10 14:59N 30°01' W 093°58'0 0.0
2018-Feb-10 14:26N 30°01' W 093°58'0 0.0
2018-Feb-10 13:59N 30°01' W 093°58'0 0.0
2018-Feb-10 13:29N 30°01' W 093°58'0 0.0
2018-Feb-10 12:59N 30°01' W 093°58'0 0.0
2018-Feb-10 12:29N 30°01' W 093°58'0 0.0
2018-Feb-10 11:59N 30°01' W 093°58'0 0.0
2018-Feb-10 11:29N 30°01' W 093°58'0 0.0
2018-Feb-10 10:59N 30°01' W 093°58'0 0.0
2018-Feb-10 10:29N 30°01' W 093°58'0 0.0
2018-Feb-10 09:59N 30°01' W 093°58'0 0.0
2018-Feb-10 09:29N 30°01' W 093°58'0 0.0
2018-Feb-10 08:59N 30°01' W 093°58'0 0.0
2018-Feb-10 08:29N 30°01' W 093°58'0 0.0
2018-Feb-10 07:59N 30°01' W 093°58'0 0.0
2018-Feb-10 07:26N 30°01' W 093°58'0 0.0
2018-Feb-10 06:59N 30°01' W 093°58'0 0.0
2018-Feb-10 06:29N 30°01' W 093°58'0 0.0
2018-Feb-10 05:59N 30°01' W 093°58'0 0.0
2018-Feb-10 05:29N 30°01' W 093°58'0 0.0
2018-Feb-10 04:59N 30°01' W 093°58'0 0.0
2018-Feb-10 04:29N 30°01' W 093°58'0 0.0
2018-Feb-10 03:59N 30°01' W 093°58'0 0.0
2018-Feb-10 03:29N 30°01' W 093°58'0 0.0
2018-Feb-10 02:59N 30°01' W 093°58'0 0.0
2018-Feb-10 02:29N 30°01' W 093°58'0 0.0
2018-Feb-10 01:59N 30°01' W 093°58'0 0.0
2018-Feb-10 01:29N 30°01' W 093°58'0 0.0
2018-Feb-10 00:59N 30°01' W 093°58'0 0.0
2018-Feb-10 00:29N 30°01' W 093°58'0 0.0
2018-Feb-09 23:59N 30°01' W 093°58'0 0.0
2018-Feb-09 23:29N 30°01' W 093°58'0 0.0
2018-Feb-09 22:59N 30°01' W 093°58'0 0.0
2018-Feb-09 22:44N 30°01' W 093°58'0 0.0
2018-Feb-08 01:29N 30°01' W 093°58'0 0.0
2018-Feb-08 00:59N 30°01' W 093°58'0 0.0
2018-Feb-08 00:29N 30°01' W 093°58'0 0.0
2018-Feb-07 23:59N 30°01' W 093°58'0 0.0
2018-Feb-07 23:29N 30°01' W 093°58'0 0.0
2018-Feb-07 22:59N 30°01' W 093°58'0 0.0
2018-Feb-07 22:29N 30°01' W 093°58'0 0.0
2018-Feb-07 21:59N 30°01' W 093°58'0 0.0
2018-Feb-07 21:29N 30°01' W 093°58'  
Track history (hours):
 
Tides and Currents Weather Stations Pressure Air Temp Water Temp Dewpoint Dewpoint Depression Visibility Wind Speed Wind Dir Waves Ship Positions

Paramount Hamilton

Last reported at 2018-Feb-17 18:24 UTC. Time now 2018-Feb-17 19:11 UTC.
Position N 29°06' W 094°36'.

Length 249 m; draft 8.5 m.

Type: Tanker. MMSI: 235076274.

Date/timePositionNaut miles runAvg speedWind from/ knotsBaromVisibWave heightAir tempDewpointWater temp
2018-Feb-17 18:24N 29°06' W 094°36'3210.8
2018-Feb-17 15:25N 28°56' W 094°01'811.4
2018-Feb-17 14:43N 28°51' W 093°54'511.4
2018-Feb-17 14:17N 28°48' W 093°49'411.3
2018-Feb-17 13:57N 28°46' W 093°45'811.0
2018-Feb-17 13:15N 28°40' W 093°41'6 8.9
2018-Feb-17 12:35N 28°34' W 093°40'0 1.9
2018-Feb-17 12:26N 28°34' W 093°40'0 0.5
2018-Feb-17 11:59N 28°34' W 093°40'1 1.6
2018-Feb-17 11:26N 28°33' W 093°41'1 1.4
2018-Feb-17 10:43N 28°33' W 093°39'0 0.3
2018-Feb-17 10:26N 28°33' W 093°39'0 0.2
2018-Feb-17 09:56N 28°33' W 093°39'0 0.0
2018-Feb-17 09:04N 28°33' W 093°39'0 0.0
2018-Feb-17 08:45N 28°33' W 093°39'0 0.0
2018-Feb-17 08:29N 28°33' W 093°39'0 0.0
2018-Feb-17 07:54N 28°33' W 093°39'0 0.0
2018-Feb-17 07:30N 28°33' W 093°39'0 0.0
2018-Feb-17 06:59N 28°33' W 093°39'0 0.0
2018-Feb-17 06:30N 28°33' W 093°39'8 0.6
2018-Feb-16 17:06N 28°34' W 093°49'1 3.6
2018-Feb-16 16:53N 28°33' W 093°49'2 2.6
2018-Feb-16 16:06N 28°33' W 093°47'0 0.9
2018-Feb-16 16:00N 28°33' W 093°47'0 0.8
2018-Feb-16 15:29N 28°33' W 093°47'1 0.9
2018-Feb-16 14:53N 28°32' W 093°47'1310.3
2018-Feb-16 13:37N 28°30' W 094°01'512.4
2018-Feb-16 13:15N 28°29' W 094°06'312.4
2018-Feb-16 13:00N 28°29' W 094°10'912.4
2018-Feb-16 12:19N 28°27' W 094°19'412.4
2018-Feb-16 11:58N 28°26' W 094°24'612.4
2018-Feb-16 11:29N 28°25' W 094°31'712.5
2018-Feb-16 10:53N 28°22' W 094°38'8 1.2
2018-Feb-16 04:14N 28°19' W 094°47'0 0.0
2018-Feb-16 02:32N 28°19' W 094°47'0 0.0
2018-Feb-16 02:29N 28°19' W 094°47'0 0.0
2018-Feb-16 01:53N 28°19' W 094°47'  
2018-Feb-12 05:36N 28°56' W 093°58'511.9
2018-Feb-12 05:10N 28°60' W 093°54'411.9
2018-Feb-12 04:49N 29°03' W 093°50'1411.7
2018-Feb-12 03:37N 29°13' W 093°40'310.8
2018-Feb-12 03:19N 29°16' W 093°39'310.8
2018-Feb-12 03:00N 29°20' W 093°40'5 9.9
2018-Feb-12 02:30N 29°25' W 093°40'4 8.1
2018-Feb-12 01:58N 29°29' W 093°40'510.8
2018-Feb-12 01:30N 29°32' W 093°44'610.8
2018-Feb-12 00:59N 29°37' W 093°49'510.4
2018-Feb-12 00:30N 29°41' W 093°50'4 9.0
2018-Feb-12 00:00N 29°45' W 093°53'4 7.5
2018-Feb-11 23:30N 29°47' W 093°57'3 6.7
2018-Feb-11 23:00N 29°50' W 093°57'2 4.7
2018-Feb-11 22:30N 29°52' W 093°56'3 6.6
2018-Feb-11 22:00N 29°55' W 093°53'3 5.9
2018-Feb-11 21:30N 29°57' W 093°52'2 4.6
2018-Feb-11 21:00N 29°59' W 093°53'3 5.6
2018-Feb-11 20:26N 29°60' W 093°57'1 3.3
2018-Feb-11 20:00N 30°01' W 093°58'0 0.0
2018-Feb-11 19:29N 30°01' W 093°58'0 0.0
2018-Feb-11 18:59N 30°01' W 093°58'0 0.0
2018-Feb-11 18:29N 30°01' W 093°58'0 0.0
2018-Feb-11 17:59N 30°01' W 093°58'0 0.0
2018-Feb-11 17:29N 30°01' W 093°58'0 0.0
2018-Feb-11 16:59N 30°01' W 093°58'0 0.0
2018-Feb-11 16:26N 30°01' W 093°58'0 0.0
2018-Feb-11 15:56N 30°01' W 093°58'0 0.0
2018-Feb-11 15:29N 30°01' W 093°58'0 0.0
2018-Feb-11 14:59N 30°01' W 093°58'0 0.0
2018-Feb-11 14:26N 30°01' W 093°58'0 0.0
2018-Feb-11 13:59N 30°01' W 093°58'0 0.0
2018-Feb-11 13:29N 30°01' W 093°58'0 0.0
2018-Feb-11 12:59N 30°01' W 093°58'0 0.0
2018-Feb-11 12:29N 30°01' W 093°58'0 0.0
2018-Feb-11 11:59N 30°01' W 093°58'0 0.0
2018-Feb-11 11:29N 30°01' W 093°58'0 0.0
2018-Feb-11 10:56N 30°01' W 093°58'0 0.0
2018-Feb-11 10:29N 30°01' W 093°58'0 0.0
2018-Feb-11 09:59N 30°01' W 093°58'0 0.0
2018-Feb-11 09:29N 30°01' W 093°58'0 0.0
2018-Feb-11 08:59N 30°01' W 093°58'0 0.0
2018-Feb-11 08:29N 30°01' W 093°58'0 0.0
2018-Feb-11 07:59N 30°01' W 093°58'0 0.0
2018-Feb-11 07:29N 30°01' W 093°58'0 0.0
2018-Feb-11 06:56N 30°01' W 093°58'0 0.0
2018-Feb-11 06:29N 30°01' W 093°58'0 0.0
2018-Feb-11 05:59N 30°01' W 093°58'0 0.0
2018-Feb-11 05:29N 30°01' W 093°58'0 0.0
2018-Feb-11 04:59N 30°01' W 093°58'0 0.0
2018-Feb-11 04:29N 30°01' W 093°58'0 0.0
2018-Feb-11 03:59N 30°01' W 093°58'0 0.0
2018-Feb-11 03:20N 30°01' W 093°58'0 0.0
2018-Feb-11 02:59N 30°01' W 093°58'0 0.0
2018-Feb-11 02:29N 30°01' W 093°58'0 0.0
2018-Feb-11 01:59N 30°01' W 093°58'0 0.0
2018-Feb-11 01:29N 30°01' W 093°58'0 0.0
2018-Feb-11 00:59N 30°01' W 093°58'0 0.0
2018-Feb-11 00:29N 30°01' W 093°58'0 0.0
2018-Feb-10 23:56N 30°01' W 093°58'0 0.0
2018-Feb-10 23:29N 30°01' W 093°58'0 0.0
2018-Feb-10 22:59N 30°01' W 093°58'0 0.0
2018-Feb-10 22:29N 30°01' W 093°58'0 0.0
2018-Feb-10 21:59N 30°01' W 093°58'0 0.0
2018-Feb-10 21:29N 30°01' W 093°58'0 0.0
2018-Feb-10 20:59N 30°01' W 093°58'0 0.0
2018-Feb-10 20:29N 30°01' W 093°58'0 0.0
2018-Feb-10 19:59N 30°01' W 093°58'0 0.0
2018-Feb-10 19:29N 30°01' W 093°58'0 0.0
2018-Feb-10 18:59N 30°01' W 093°58'0 0.0
2018-Feb-10 18:29N 30°01' W 093°58'0 0.0
2018-Feb-10 17:59N 30°01' W 093°58'0 0.0
2018-Feb-10 17:29N 30°01' W 093°58'0 0.0
2018-Feb-10 16:59N 30°01' W 093°58'0 0.0
2018-Feb-10 16:29N 30°01' W 093°58'0 0.0
2018-Feb-10 15:59N 30°01' W 093°58'0 0.0
2018-Feb-10 15:29N 30°01' W 093°58'0 0.0
2018-Feb-10 14:59N 30°01' W 093°58'0 0.0
2018-Feb-10 14:26N 30°01' W 093°58'0 0.0
2018-Feb-10 13:59N 30°01' W 093°58'0 0.0
2018-Feb-10 13:29N 30°01' W 093°58'0 0.0
2018-Feb-10 12:59N 30°01' W 093°58'0 0.0
2018-Feb-10 12:29N 30°01' W 093°58'0 0.0
2018-Feb-10 11:59N 30°01' W 093°58'0 0.0
2018-Feb-10 11:29N 30°01' W 093°58'0 0.0
2018-Feb-10 10:59N 30°01' W 093°58'0 0.0
2018-Feb-10 10:29N 30°01' W 093°58'0 0.0
2018-Feb-10 09:59N 30°01' W 093°58'0 0.0
2018-Feb-10 09:29N 30°01' W 093°58'0 0.0
2018-Feb-10 08:59N 30°01' W 093°58'0 0.0
2018-Feb-10 08:29N 30°01' W 093°58'0 0.0
2018-Feb-10 07:59N 30°01' W 093°58'0 0.0
2018-Feb-10 07:26N 30°01' W 093°58'0 0.0
2018-Feb-10 06:59N 30°01' W 093°58'0 0.0
2018-Feb-10 06:29N 30°01' W 093°58'0 0.0
2018-Feb-10 05:59N 30°01' W 093°58'0 0.0
2018-Feb-10 05:29N 30°01' W 093°58'0 0.0
2018-Feb-10 04:59N 30°01' W 093°58'0 0.0
2018-Feb-10 04:29N 30°01' W 093°58'0 0.0
2018-Feb-10 03:59N 30°01' W 093°58'0 0.0
2018-Feb-10 03:29N 30°01' W 093°58'0 0.0
2018-Feb-10 02:59N 30°01' W 093°58'0 0.0
2018-Feb-10 02:29N 30°01' W 093°58'0 0.0
2018-Feb-10 01:59N 30°01' W 093°58'0 0.0
2018-Feb-10 01:29N 30°01' W 093°58'0 0.0
2018-Feb-10 00:59N 30°01' W 093°58'0 0.0
2018-Feb-10 00:29N 30°01' W 093°58'0 0.0
2018-Feb-09 23:59N 30°01' W 093°58'0 0.0
2018-Feb-09 23:29N 30°01' W 093°58'0 0.0
2018-Feb-09 22:59N 30°01' W 093°58'0 0.0
2018-Feb-09 22:44N 30°01' W 093°58'0 0.0
2018-Feb-08 01:29N 30°01' W 093°58'0 0.0
2018-Feb-08 00:59N 30°01' W 093°58'0 0.0
2018-Feb-08 00:29N 30°01' W 093°58'0 0.0
2018-Feb-07 23:59N 30°01' W 093°58'0 0.0
2018-Feb-07 23:29N 30°01' W 093°58'0 0.0
2018-Feb-07 22:59N 30°01' W 093°58'0 0.0
2018-Feb-07 22:29N 30°01' W 093°58'0 0.0
2018-Feb-07 21:59N 30°01' W 093°58'0 0.0
2018-Feb-07 21:29N 30°01' W 093°58'  

Dump ship's entire track history